Ohiowa, Nebraska
Current Conditions -  °F | °C
As of 6:35 PM on Saturday 25 Oct 2014 (Local Time) from KHJH Reporting Station
Clear Clear  
Wind Chill: 72°   Ceiling: Unl
Heat Index: 72°   Visibility: 10mi
Dew Point: 47°   Wind: 6mph
Humidity: 41%   Direction: 110°ESE
Pressure: 30"   Gusts: NA
Location:  40.41°N, 97.45°W
Report Text: KHJH 252335Z AUTO 11005KT 10SM CLR 22/08 A3000 RMK AO2 T02210083
Loading
Personal Weather Stations






























Interactive Weather Map
Tropical Storm Tracking
New forecast layout! Learn more

10-Day Weather Forecast

Advertisements
Track Severe Weather on mobile